sensor_id;sensor_type;location;lat;lon;timestamp;P1;durP1;ratioP1;P2;durP2;ratioP2
22837;SDS011;11585;51.450;-0.240;2024-03-23T13:34:08;101.45;;;93.35;;
22837;SDS011;11585;51.450;-0.240;2024-03-23T13:36:34;96.32;;;88.47;;
22837;SDS011;11585;51.450;-0.240;2024-03-23T13:39:01;101.07;;;92.93;;
22837;SDS011;11585;51.450;-0.240;2024-03-23T13:41:35;102.57;;;94.38;;
22837;SDS011;11585;51.450;-0.240;2024-03-23T13:46:50;100.15;;;92.15;;
22837;SDS011;11585;51.450;-0.240;2024-03-23T13:49:29;100.88;;;92.88;;
22837;SDS011;11585;51.450;-0.240;2024-03-23T13:51:59;100.07;;;92.07;;
22837;SDS011;11585;51.450;-0.240;2024-03-23T13:54:26;102.38;;;94.30;;
22837;SDS011;11585;51.450;-0.240;2024-03-23T13:56:53;101.10;;;93.03;;
22837;SDS011;11585;51.450;-0.240;2024-03-23T13:59:20;101.05;;;92.93;;
22837;SDS011;11585;51.450;-0.240;2024-03-23T14:01:48;101.95;;;93.68;;
22837;SDS011;11585;51.450;-0.240;2024-03-23T14:06:59;99.47;;;91.32;;
22837;SDS011;11585;51.450;-0.240;2024-03-23T14:09:25;103.05;;;94.75;;
22837;SDS011;11585;51.450;-0.240;2024-03-23T14:11:50;100.07;;;91.95;;
22837;SDS011;11585;51.450;-0.240;2024-03-23T14:14:16;99.88;;;91.68;;
22837;SDS011;11585;51.450;-0.240;2024-03-23T14:16:43;99.95;;;91.75;;
22837;SDS011;11585;51.450;-0.240;2024-03-23T14:19:09;103.95;;;95.55;;
22837;SDS011;11585;51.450;-0.240;2024-03-23T14:21:34;96.53;;;88.43;;
22837;SDS011;11585;51.450;-0.240;2024-03-23T14:24:01;98.35;;;90.28;;
22837;SDS011;11585;51.450;-0.240;2024-03-23T14:26:27;98.07;;;89.97;;
22837;SDS011;11585;51.450;-0.240;2024-03-23T14:28:52;96.53;;;88.55;;
22837;SDS011;11585;51.450;-0.240;2024-03-23T14:31:18;94.45;;;86.65;;
22837;SDS011;11585;51.450;-0.240;2024-03-23T14:33:45;97.32;;;89.43;;
22837;SDS011;11585;51.450;-0.240;2024-03-23T14:36:14;94.35;;;86.53;;
22837;SDS011;11585;51.450;-0.240;2024-03-23T14:38:42;96.05;;;88.15;;
22837;SDS011;11585;51.450;-0.240;2024-03-23T14:41:12;97.10;;;89.10;;
22837;SDS011;11585;51.450;-0.240;2024-03-23T14:43:37;98.90;;;90.82;;
22837;SDS011;11585;51.450;-0.240;2024-03-23T14:46:10;95.20;;;87.30;;
22837;SDS011;11585;51.450;-0.240;2024-03-23T14:48:40;95.55;;;87.55;;
22837;SDS011;11585;51.450;-0.240;2024-03-23T14:51:07;99.15;;;91.05;;
22837;SDS011;11585;51.450;-0.240;2024-03-23T14:53:35;99.00;;;91.00;;
22837;SDS011;11585;51.450;-0.240;2024-03-23T22:19:25;72.18;;;65.72;;
22837;SDS011;11585;51.450;-0.240;2024-03-23T22:22:08;70.88;;;64.55;;
22837;SDS011;11585;51.450;-0.240;2024-03-23T22:24:34;71.57;;;65.28;;
22837;SDS011;11585;51.450;-0.240;2024-03-23T22:29:46;72.65;;;66.25;;
22837;SDS011;11585;51.450;-0.240;2024-03-23T22:32:11;71.70;;;65.30;;
22837;SDS011;11585;51.450;-0.240;2024-03-23T22:34:39;72.55;;;66.15;;
22837;SDS011;11585;51.450;-0.240;2024-03-23T22:39:36;76.40;;;69.85;;
22837;SDS011;11585;51.450;-0.240;2024-03-23T22:42:01;77.43;;;70.85;;
22837;SDS011;11585;51.450;-0.240;2024-03-23T22:44:27;77.47;;;70.85;;
22837;SDS011;11585;51.450;-0.240;2024-03-23T22:53:38;78.07;;;71.40;;
22837;SDS011;11585;51.450;-0.240;2024-03-23T22:58:49;76.63;;;70.15;;
22837;SDS011;11585;51.450;-0.240;2024-03-23T23:01:14;77.82;;;71.22;;
22837;SDS011;11585;51.450;-0.240;2024-03-23T23:03:40;80.88;;;74.18;;
22837;SDS011;11585;51.450;-0.240;2024-03-23T23:06:06;80.18;;;73.45;;
22837;SDS011;11585;51.450;-0.240;2024-03-23T23:08:33;80.13;;;73.38;;
22837;SDS011;11585;51.450;-0.240;2024-03-23T23:10:59;78.80;;;72.13;;
22837;SDS011;11585;51.450;-0.240;2024-03-23T23:13:25;77.72;;;71.18;;
22837;SDS011;11585;51.450;-0.240;2024-03-23T23:18:56;79.72;;;73.22;;
22837;SDS011;11585;51.450;-0.240;2024-03-23T23:21:22;77.90;;;71.43;;
22837;SDS011;11585;51.450;-0.240;2024-03-23T23:23:48;80.30;;;73.72;;
22837;SDS011;11585;51.450;-0.240;2024-03-23T23:28:42;79.57;;;72.97;;
22837;SDS011;11585;51.450;-0.240;2024-03-23T23:31:08;78.85;;;72.28;;
22837;SDS011;11585;51.450;-0.240;2024-03-23T23:33:34;76.38;;;69.88;;
22837;SDS011;11585;51.450;-0.240;2024-03-23T23:39:05;79.18;;;72.57;;
22837;SDS011;11585;51.450;-0.240;2024-03-23T23:41:31;79.75;;;73.13;;
22837;SDS011;11585;51.450;-0.240;2024-03-23T23:43:56;77.85;;;71.32;;
22837;SDS011;11585;51.450;-0.240;2024-03-23T23:46:25;78.78;;;72.18;;
22837;SDS011;11585;51.450;-0.240;2024-03-23T23:48:50;78.30;;;71.80;;
22837;SDS011;11585;51.450;-0.240;2024-03-23T23:51:16;77.03;;;70.53;;
